Hundvaag 1 weather for Nov 2002
Month no. 185
Obs.
Da.
Temp. Dew Point Precip. Wind
Speed
Wind gusts Cloud cover Press. Humidity Wind dir. Sunny OPT
01.11.2002 6,1   1,6     9 1013,5     1  
02.11.2002 0,8   0,0     10 1017,3     1  
03.11.2002 3,5   0,0     3 1012,0     1  
04.11.2002 4,7   0,0     5 1014,6     1  
05.11.2002 5,8   0,0 9,0   0 1017,9 65,0 135,0   55,0 %
06.11.2002 7,8   0,8 21,0   0 1011,4 81,0 157,5   50,0 %
07.11.2002 6,8   26,1 5,0   0 1007,3 93,0 180,0   37,5 %
08.11.2002 3,7   1,3 6,0   0 1006,9 75,0 90,0   55,0 %
09.11.2002 1,4   0,1 6,0   6 1007,0 91,0 135,0 1 67,5 %
10.11.2002 2,7   0,0 3,0   9 1010,7 70,0 112,5 1 80,0 %
11.11.2002 1,2   0,0 13,0   10 1007,0 56,0 112,5   72,5 %
12.11.2002 2,6   0,2 18,0   0 1006,5 65,0 112,5 1 47,5 %
13.11.2002 2,1   19,0 9,0   0 998,6 93,0 45,0   35,0 %
14.11.2002 0,2   0,8 0,0   10 1000,6 91,0   1 80,0 %
15.11.2002 5,9   7,0 13,0   0 999,3 87,0 112,5 1 47,5 %
16.11.2002 8,3   9,4 17,0   1 1005,6 81,0 157,5 1 47,5 %
17.11.2002 6,2   0,1 7,0   0 1006,8 81,0 135,0   57,5 %
18.11.2002 3,0   1,2 3,0   9 1010,5 100,0 180,0 1 80,0 %
19.11.2002 -1,1   0,0 6,0   10 1016,1 91,0 135,0 1 75,0 %
20.11.2002 -4,2   0,0 2,0   10 1016,8 69,0 180,0 1 75,0 %
21.11.2002 -2,9   0,0 0,0   3 1012,0 83,0 180,0 1 57,5 %
22.11.2002 2,8   2,2 16,0   0 1008,6 70,0 90,0   47,5 %
23.11.2002 3,6   0,1 12,0   0 1011,4 56,0 90,0   50,0 %
24.11.2002 2,8   0,1 2,0   7 1013,5 75,0 90,0 1 75,0 %
25.11.2002 6,0   3,2 15,0   0 1011,8 76,0 135,0   47,5 %
26.11.2002 0,7   0,7 2,0   3 1010,9 100,0 157,5 1 62,5 %
27.11.2002 4,7   0,0 9,0   0 1014,0 93,0 135,0   52,5 %
28.11.2002 7,5   0,0 12,0   0 1012,3 66,0 157,5   55,0 %
29.11.2002 6,1   0,1 13,0   0 1014,2 61,0 90,0 1 52,5 %
30.11.2002 3,5   0,0 6,0   2 1019,4 52,0 90,0 1 60,0 %
                       
Avrg/Sum 3,4   74,0 8,7   3,6 1010,5 77,7 127,8 18 58,6 %